Time;durP1;ratioP1;P1;durP2;ratioP2;P2;SDS_P1;SDS_P2;PMS_P1;PMS_P2;Temp;Humidity;BMP_temperature;BMP_pressure;BME280_temperature;BME280_humidity;BME280_pressure;Samples;Min_cycle;Max_cycle;Signal;HPM_P1;HPM_P2
2021/07/14 00:01:55;;;;;;;13.13;8.65;;;691.90;1305.60;;;;;;5151119;27;20087;-76
2021/07/14 00:04:21;;;;;;;10.25;8.05;;;691.80;1305.60;;;;;;5135223;27;20022;-77
2021/07/14 00:06:46;;;;;;;10.75;8.25;;;691.90;1305.60;;;;;;5135658;27;20023;-77
2021/07/14 00:09:12;;;;;;;18.10;9.10;;;691.80;1305.60;;;;;;5153802;27;20015;-76
2021/07/14 00:11:44;;;;;;;11.27;7.97;;;691.70;1305.60;;;;;;5135412;27;20011;-76
2021/07/14 00:22:18;;;;;;;10.70;7.80;;;691.60;1305.60;;;;;;5151413;27;20076;-78
2021/07/14 00:24:44;;;;;;;13.18;8.40;;;691.50;1331.20;;;;;;5153757;27;20019;-76
2021/07/14 00:27:12;;;;;;;13.02;8.93;;;691.60;1305.60;;;;;;5134923;27;20479;-77
2021/07/14 00:29:50;;;;;;;12.65;7.57;;;691.60;1305.60;;;;;;5151010;27;20021;-77
2021/07/14 00:32:16;;;;;;;13.02;8.43;;;691.50;1305.60;;;;;;5153617;27;20011;-76
2021/07/14 00:34:42;;;;;;;11.57;7.35;;;691.50;1305.60;;;;;;5153291;27;20034;-77
2021/07/14 00:37:08;;;;;;;12.23;8.32;;;691.40;1305.60;;;;;;5153773;27;20033;-77
2021/07/14 00:39:34;;;;;;;18.98;8.43;;;691.40;1331.20;;;;;;5134772;27;20023;-76
2021/07/14 00:41:59;;;;;;;11.63;7.60;;;691.30;1331.20;;;;;;5153437;27;20034;-80
2021/07/14 00:44:25;;;;;;;19.63;9.05;;;691.30;1331.20;;;;;;5153083;27;20094;-76
2021/07/14 00:46:53;;;;;;;17.13;8.45;;;691.30;1331.20;;;;;;5152777;27;21381;-77
2021/07/14 00:49:19;;;;;;;11.95;7.90;;;691.30;1331.20;;;;;;5128974;27;20106;-77
2021/07/14 00:51:46;;;;;;;13.90;8.32;;;691.30;1331.20;;;;;;5116231;27;20468;-76
2021/07/14 00:54:12;;;;;;;10.90;7.95;;;691.60;1331.20;;;;;;5146796;27;20030;-77
2021/07/14 00:56:39;;;;;;;15.73;8.20;;;691.30;1331.20;;;;;;5134472;27;20019;-77
2021/07/14 00:59:05;;;;;;;11.18;7.80;;;691.30;1331.20;;;;;;5153305;27;20027;-77
2021/07/14 01:01:31;;;;;;;13.30;8.18;;;691.30;1331.20;;;;;;5152870;27;20420;-77
2021/07/14 01:04:12;;;;;;;11.10;8.07;;;691.40;1331.20;;;;;;5150280;27;20041;-77
2021/07/14 01:06:50;;;;;;;19.30;8.30;;;691.30;1331.20;;;;;;5139544;27;20027;-76
2021/07/14 01:09:20;;;;;;;21.77;8.93;;;691.30;1331.20;;;;;;5131168;27;20498;-76
2021/07/14 01:11:48;;;;;;;19.00;8.43;;;691.20;1331.20;;;;;;5134527;27;20031;-76
2021/07/14 01:14:23;;;;;;;11.07;7.97;;;691.20;1331.20;;;;;;5134143;27;20030;-78
2021/07/14 01:17:00;;;;;;;15.10;7.23;;;691.20;1331.20;;;;;;5153210;27;20026;-77
2021/07/14 01:19:44;;;;;;;12.30;6.95;;;691.20;1331.20;;;;;;5131739;27;20255;-79
2021/07/14 01:22:37;;;;;;;16.35;8.45;;;691.20;1331.20;;;;;;5133269;27;20071;-80
2021/07/14 01:25:26;;;;;;;12.02;7.55;;;691.20;1331.20;;;;;;5130609;27;20114;-77
2021/07/14 01:27:55;;;;;;;11.30;7.25;;;691.20;1331.20;;;;;;5130168;27;20031;-79
2021/07/14 01:30:22;;;;;;;15.32;7.22;;;691.20;1331.20;;;;;;5150701;27;20019;-78
2021/07/14 01:32:50;;;;;;;12.25;7.05;;;691.20;1331.20;;;;;;5131577;27;20409;-79
2021/07/14 01:35:26;;;;;;;12.02;7.32;;;691.20;1331.20;;;;;;5139204;27;20072;-80
2021/07/14 01:37:53;;;;;;;18.92;7.53;;;691.20;1331.20;;;;;;5134287;27;20022;-81
2021/07/14 01:40:22;;;;;;;13.05;6.90;;;666.50;1331.20;;;;;;5150439;27;20018;-79
2021/07/14 01:42:54;;;;;;;11.38;6.88;;;691.30;1305.60;;;;;;5131890;27;20031;-80
2021/07/14 01:45:20;;;;;;;10.32;6.90;;;691.40;1305.60;;;;;;5132662;27;20043;-77
2021/07/14 01:47:48;;;;;;;8.30;7.03;;;691.40;1331.20;;;;;;5152845;27;20053;-78
2021/07/14 01:50:16;;;;;;;9.07;7.13;;;691.30;1305.60;;;;;;5152534;27;20022;-78
2021/07/14 01:52:43;;;;;;;9.73;6.50;;;691.40;1305.60;;;;;;5131655;27;20018;-77
2021/07/14 01:55:10;;;;;;;11.05;6.90;;;691.40;1305.60;;;;;;5133994;27;20022;-77
2021/07/14 01:57:38;;;;;;;13.10;7.22;;;691.40;1305.60;;;;;;5154327;27;20021;-77
2021/07/14 02:00:11;;;;;;;15.80;6.90;;;691.40;1305.60;;;;;;5137177;27;20026;-79
2021/07/14 02:05:26;;;;;;;10.35;6.50;;;691.60;1305.60;;;;;;5060857;28;20174;-76
2021/07/14 02:07:52;;;;;;;12.10;7.35;;;691.60;1305.60;;;;;;5056088;28;20554;-76
2021/07/14 02:10:18;;;;;;;12.93;6.65;;;691.70;1305.60;;;;;;5051961;28;20072;-79
2021/07/14 02:12:47;;;;;;;11.45;7.07;;;691.70;1280.00;;;;;;5035435;28;20062;-78
2021/07/14 02:15:13;;;;;;;11.65;6.00;;;691.70;1305.60;;;;;;5052086;28;20375;-77
2021/07/14 02:17:47;;;;;;;10.95;6.75;;;691.70;1280.00;;;;;;5052346;28;20148;-77
2021/07/14 02:20:16;;;;;;;14.15;6.95;;;691.80;1280.00;;;;;;5064104;28;20016;-76
2021/07/14 02:22:42;;;;;;;12.90;6.15;;;691.80;1280.00;;;;;;5049625;28;20080;-78
2021/07/14 02:25:09;;;;;;;13.63;6.88;;;691.90;1280.00;;;;;;5051810;28;20055;-77
2021/07/14 02:27:35;;;;;;;14.10;6.85;;;692.00;1280.00;;;;;;5051916;28;20021;-76
2021/07/14 02:30:04;;;;;;;10.90;6.45;;;692.10;1280.00;;;;;;5032684;28;20029;-77
2021/07/14 02:32:29;;;;;;;12.18;7.28;;;692.10;1280.00;;;;;;5051723;28;20025;-79
2021/07/14 02:34:56;;;;;;;11.30;6.82;;;716.80;1305.60;;;;;;5034925;28;21559;-79
2021/07/14 02:37:28;;;;;;;9.02;6.07;;;716.80;1280.00;;;;;;5051715;28;20552;-80
2021/07/14 02:39:57;;;;;;;11.88;7.20;;;692.10;1280.00;;;;;;5051757;28;20029;-80
2021/07/14 02:42:29;;;;;;;19.15;7.40;;;692.10;1280.00;;;;;;5109391;27;20066;-80
2021/07/14 02:44:58;;;;;;;9.75;7.00;;;692.10;1280.00;;;;;;5136807;27;20126;-79
2021/07/14 02:47:24;;;;;;;14.32;9.93;;;716.80;1305.60;;;;;;5134994;27;20023;-79
2021/07/14 02:49:50;;;;;;;13.18;6.13;;;716.80;1305.60;;;;;;5136993;27;20026;-80
2021/07/14 02:52:17;;;;;;;12.82;6.95;;;716.80;1305.60;;;;;;5155618;27;20031;-79
2021/07/14 02:54:45;;;;;;;9.38;6.82;;;692.10;1280.00;;;;;;5131393;27;20067;-78
2021/07/14 02:57:14;;;;;;;11.98;7.43;;;692.00;1280.00;;;;;;5137170;27;20023;-78
2021/07/14 02:59:44;;;;;;;12.98;7.20;;;692.00;1280.00;;;;;;5155287;27;20079;-78
2021/07/14 03:02:11;;;;;;;13.25;6.97;;;692.00;1305.60;;;;;;5136839;27;20035;-78
2021/07/14 03:04:44;;;;;;;8.60;6.65;;;716.90;1331.20;;;;;;5136565;27;20033;-78
2021/07/14 03:07:10;;;;;;;11.18;6.05;;;691.90;1305.60;;;;;;5136586;27;20484;-78
2021/07/14 03:09:39;;;;;;;10.77;7.13;;;691.90;1305.60;;;;;;5154686;27;20072;-78
2021/07/14 03:12:08;;;;;;;20.10;7.55;;;691.80;1305.60;;;;;;5131526;27;20023;-78
2021/07/14 03:14:36;;;;;;;19.55;7.18;;;691.80;1331.20;;;;;;5136724;27;20487;-78
2021/07/14 03:17:03;;;;;;;8.00;6.25;;;691.80;1331.20;;;;;;5136463;27;20033;-77
2021/07/14 03:19:30;;;;;;;19.48;7.95;;;691.80;1331.20;;;;;;5155069;27;20014;-77
2021/07/14 03:21:57;;;;;;;14.80;7.00;;;691.80;1331.20;;;;;;5154072;27;20499;-79
2021/07/14 03:24:24;;;;;;;14.48;7.07;;;691.50;1331.20;;;;;;5152291;27;20015;-78
2021/07/14 03:26:50;;;;;;;20.70;7.10;;;691.60;1331.20;;;;;;5136064;27;20383;-78
2021/07/14 03:29:16;;;;;;;12.05;6.95;;;691.70;1331.20;;;;;;5135400;27;20034;-77
2021/07/14 03:31:44;;;;;;;16.90;6.82;;;691.70;1331.20;;;;;;5136195;27;20019;-78
2021/07/14 03:34:10;;;;;;;13.80;7.22;;;691.60;1331.20;;;;;;5135876;27;20068;-78
2021/07/14 03:36:36;;;;;;;13.18;7.45;;;691.60;1356.80;;;;;;5154796;27;20026;-78
2021/07/14 03:39:05;;;;;;;12.95;6.93;;;691.60;1356.80;;;;;;5132590;27;20018;-78
2021/07/14 03:41:31;;;;;;;12.57;7.82;;;691.60;1356.80;;;;;;5148442;27;20050;-78
2021/07/14 03:43:58;;;;;;;13.57;7.50;;;691.60;1356.80;;;;;;5127315;27;20039;-82
2021/07/14 03:46:24;;;;;;;12.40;7.00;;;691.60;1356.80;;;;;;5151832;27;20015;-77
2021/07/14 03:48:52;;;;;;;13.27;7.07;;;691.70;1356.80;;;;;;5136017;27;20026;-77
2021/07/14 03:51:21;;;;;;;16.02;7.03;;;691.60;1356.80;;;;;;5154218;27;20489;-76
2021/07/14 03:53:49;;;;;;;11.52;7.00;;;691.60;1382.40;;;;;;5152116;27;20056;-76
2021/07/14 03:56:14;;;;;;;12.88;7.57;;;691.60;1382.40;;;;;;5154247;27;20480;-78
2021/07/14 03:58:43;;;;;;;11.00;7.07;;;691.60;1382.40;;;;;;5135822;27;20023;-77
2021/07/14 04:01:12;;;;;;;9.73;7.60;;;691.40;1382.40;;;;;;5154122;27;20021;-78
2021/07/14 04:03:39;;;;;;;15.32;7.82;;;691.50;1382.40;;;;;;5154123;27;20033;-79
2021/07/14 04:06:07;;;;;;;15.90;8.02;;;691.50;1408.00;;;;;;5151324;27;20014;-78
2021/07/14 04:08:44;;;;;;;10.93;6.78;;;691.40;1408.00;;;;;;5153905;27;20025;-78
2021/07/14 04:11:13;;;;;;;14.23;8.13;;;691.40;1408.00;;;;;;5152176;27;20098;-78
2021/07/14 04:13:40;;;;;;;13.85;7.68;;;691.40;1408.00;;;;;;5135112;27;20026;-77
2021/07/14 04:16:06;;;;;;;9.27;6.57;;;691.40;1408.00;;;;;;5132717;27;20052;-78
2021/07/14 04:18:32;;;;;;;12.07;7.70;;;691.40;1408.00;;;;;;5135220;27;20015;-79
2021/07/14 04:20:57;;;;;;;13.82;7.35;;;691.40;1408.00;;;;;;5135179;27;20018;-75
2021/07/14 04:23:23;;;;;;;15.07;8.27;;;691.40;1408.00;;;;;;5134633;27;20035;-77
2021/07/14 04:25:49;;;;;;;10.50;7.40;;;691.40;1433.60;;;;;;5135100;27;20025;-78
2021/07/14 04:28:15;;;;;;;14.05;7.78;;;691.40;1433.60;;;;;;5135337;27;20022;-78
2021/07/14 04:30:41;;;;;;;11.27;7.72;;;691.40;1433.60;;;;;;5135035;27;20019;-77
2021/07/14 04:33:07;;;;;;;18.85;8.95;;;691.40;1433.60;;;;;;5153761;27;20063;-77
2021/07/14 04:35:33;;;;;;;18.02;9.07;;;691.40;1433.60;;;;;;5134969;27;20063;-76
2021/07/14 04:37:59;;;;;;;11.25;8.15;;;691.50;1433.60;;;;;;5153704;27;20023;-78
2021/07/14 04:40:25;;;;;;;11.02;8.40;;;691.50;1433.60;;;;;;5153308;27;20022;-78
2021/07/14 04:42:51;;;;;;;14.73;8.73;;;691.50;1433.60;;;;;;5134965;27;20498;-78
2021/07/14 04:45:18;;;;;;;12.70;7.85;;;691.40;1459.20;;;;;;5134596;27;20088;-77
2021/07/14 04:47:44;;;;;;;17.90;7.88;;;691.50;1433.60;;;;;;5134923;27;20023;-79
2021/07/14 04:50:10;;;;;;;10.45;6.80;;;691.60;1459.20;;;;;;5134871;27;20163;-78
2021/07/14 04:52:35;;;;;;;15.35;7.60;;;691.60;1433.60;;;;;;5153221;27;20022;-77
2021/07/14 04:55:01;;;;;;;18.60;7.90;;;691.70;1459.20;;;;;;5134389;27;20043;-78
2021/07/14 04:57:27;;;;;;;15.15;7.78;;;691.70;1459.20;;;;;;5153115;27;20015;-77
2021/07/14 04:59:53;;;;;;;12.48;8.77;;;691.80;1433.60;;;;;;5134959;27;20042;-78
2021/07/14 05:02:18;;;;;;;9.40;7.35;;;691.90;1433.60;;;;;;5134316;27;20031;-78
2021/07/14 05:04:44;;;;;;;15.32;8.48;;;691.90;1433.60;;;;;;5134662;27;20018;-76
2021/07/14 05:07:11;;;;;;;11.48;7.72;;;692.00;1433.60;;;;;;5153051;27;20050;-77
2021/07/14 05:09:37;;;;;;;28.25;9.50;;;692.10;1433.60;;;;;;5153262;27;20018;-77
2021/07/14 05:12:04;;;;;;;18.58;9.90;;;716.80;1459.20;;;;;;5153025;27;20027;-79
2021/07/14 05:14:29;;;;;;;12.60;9.10;;;716.80;1459.20;;;;;;5130894;27;20067;-83
2021/07/14 05:16:55;;;;;;;16.13;8.52;;;716.80;1459.20;;;;;;5133328;27;20023;-82
2021/07/14 05:19:21;;;;;;;15.80;8.48;;;716.90;1433.60;;;;;;5134926;27;20019;-80
2021/07/14 05:21:47;;;;;;;16.40;8.43;;;716.90;1433.60;;;;;;5134876;27;20414;-80
2021/07/14 05:24:12;;;;;;;18.65;9.55;;;717.00;1433.60;;;;;;5150479;27;20025;-79
2021/07/14 05:26:39;;;;;;;16.83;8.98;;;717.10;1433.60;;;;;;5153526;27;20025;-79
2021/07/14 05:29:05;;;;;;;11.73;8.57;;;717.10;1433.60;;;;;;5134821;27;20539;-80
2021/07/14 05:31:31;;;;;;;12.23;8.18;;;717.10;1433.60;;;;;;5134857;27;20027;-79
2021/07/14 05:33:57;;;;;;;14.88;8.40;;;717.20;1433.60;;;;;;5139091;27;20022;-82
2021/07/14 05:36:23;;;;;;;20.55;9.55;;;717.30;1433.60;;;;;;5136483;27;20172;-81
2021/07/14 05:38:50;;;;;;;15.55;8.32;;;717.40;1433.60;;;;;;5130236;27;20015;-82
2021/07/14 05:41:15;;;;;;;22.45;9.15;;;717.40;1433.60;;;;;;5139269;27;20117;-82
2021/07/14 05:43:41;;;;;;;21.52;7.88;;;717.40;1433.60;;;;;;5148948;27;20055;-82
2021/07/14 05:46:07;;;;;;;18.98;9.02;;;717.60;1408.00;;;;;;5138999;27;20476;-83
2021/07/14 05:48:33;;;;;;;19.10;9.13;;;717.70;1408.00;;;;;;5139068;27;20417;-82
2021/07/14 05:50:59;;;;;;;15.93;9.45;;;717.70;1382.40;;;;;;5138723;27;20027;-84
2021/07/14 05:53:25;;;;;;;13.48;8.98;;;717.70;1408.00;;;;;;5135221;27;20023;-81
2021/07/14 05:55:51;;;;;;;18.75;9.55;;;742.40;1433.60;;;;;;5147624;27;20079;-79
2021/07/14 05:58:17;;;;;;;24.60;9.95;;;742.50;1433.60;;;;;;5156928;27;20094;-81
2021/07/14 06:00:43;;;;;;;13.27;8.55;;;742.50;1408.00;;;;;;5137783;27;20051;-80
2021/07/14 06:03:09;;;;;;;19.75;9.48;;;742.60;1408.00;;;;;;5154027;27;20026;-81
2021/07/14 06:05:35;;;;;;;16.65;9.15;;;742.60;1408.00;;;;;;5156705;27;20041;-80
2021/07/14 06:08:02;;;;;;;15.70;8.32;;;742.70;1408.00;;;;;;5157078;27;20038;-83
2021/07/14 06:10:28;;;;;;;21.42;9.00;;;742.80;1408.00;;;;;;5138152;27;20044;-81
2021/07/14 06:12:59;;;;;;;16.50;8.38;;;742.90;1382.40;;;;;;5131723;27;20054;-78
2021/07/14 06:15:26;;;;;;;14.85;8.18;;;742.90;1382.40;;;;;;5149884;27;20067;-78
2021/07/14 06:17:53;;;;;;;16.65;8.73;;;743.00;1382.40;;;;;;5137542;27;20019;-81
2021/07/14 06:20:19;;;;;;;20.40;8.95;;;743.30;1382.40;;;;;;5137146;27;20031;-78
2021/07/14 06:22:46;;;;;;;11.27;7.63;;;743.20;1382.40;;;;;;5136998;27;20056;-81
2021/07/14 06:25:12;;;;;;;13.82;8.75;;;743.30;1382.40;;;;;;5156591;27;20015;-82
2021/07/14 06:27:39;;;;;;;13.48;8.68;;;743.30;1356.80;;;;;;5137951;27;20109;-81
2021/07/14 06:30:09;;;;;;;27.13;9.85;;;768.00;1356.80;;;;;;5137799;27;20023;-79
2021/07/14 06:32:38;;;;;;;21.08;9.00;;;768.00;1356.80;;;;;;5137641;27;20027;-82
2021/07/14 06:35:06;;;;;;;13.85;8.75;;;768.00;1356.80;;;;;;5136342;27;20022;-78
2021/07/14 06:37:31;;;;;;;16.90;7.85;;;768.10;1356.80;;;;;;5153662;27;20495;-80
2021/07/14 06:39:57;;;;;;;15.75;8.95;;;768.10;1331.20;;;;;;5134797;27;20045;-81
2021/07/14 07:19:08;;;;;;;;;;;793.60;1331.20;;;;;;5069161;28;20398;-78
2021/07/14 07:21:33;;;;;;;;;;;794.10;1280.00;;;;;;5051097;28;19912;-83
2021/07/14 07:24:00;;;;;;;17.83;9.35;;;794.00;1305.60;;;;;;5050897;28;20386;-77
2021/07/14 07:26:26;;;;;;;18.10;9.57;;;793.90;1280.00;;;;;;5068488;28;20119;-77
2021/07/14 07:28:58;;;;;;;22.55;9.45;;;794.00;1305.60;;;;;;5065438;28;20031;-76
2021/07/14 07:31:25;;;;;;;13.65;8.40;;;794.10;1280.00;;;;;;5050354;28;20024;-76
2021/07/14 07:33:51;;;;;;;10.27;8.55;;;794.30;1280.00;;;;;;5065598;28;20020;-84
2021/07/14 07:36:17;;;;;;;14.07;8.85;;;794.40;1280.00;;;;;;5068388;28;20517;-77
2021/07/14 07:38:42;;;;;;;14.35;9.45;;;794.20;1280.00;;;;;;5068445;28;20381;-76
2021/07/14 07:41:09;;;;;;;10.80;9.10;;;794.40;1280.00;;;;;;5068023;28;20020;-76
2021/07/14 07:43:35;;;;;;;22.08;9.50;;;794.40;1280.00;;;;;;5068317;28;20027;-76
2021/07/14 07:46:01;;;;;;;26.33;9.23;;;794.50;1280.00;;;;;;5067833;28;20092;-84
2021/07/14 07:48:27;;;;;;;18.27;9.02;;;794.50;1254.40;;;;;;5050411;28;20043;-77
2021/07/14 07:50:54;;;;;;;18.88;9.00;;;819.30;1228.80;;;;;;5068012;28;20025;-77
2021/07/14 07:53:21;;;;;;;13.10;8.57;;;819.40;1203.20;;;;;;5068197;28;20028;-76
2021/07/14 07:55:51;;;;;;;12.93;8.63;;;819.40;1228.80;;;;;;5068252;28;20016;-79
2021/07/14 07:58:18;;;;;;;18.40;7.85;;;819.60;1203.20;;;;;;5050232;28;20021;-76
2021/07/14 08:00:45;;;;;;;12.07;8.18;;;819.70;1177.60;;;;;;5068204;28;20428;-76
2021/07/14 08:03:11;;;;;;;22.58;8.55;;;819.70;1152.00;;;;;;5049791;28;20029;-80
2021/07/14 08:05:36;;;;;;;15.75;8.40;;;819.90;1177.60;;;;;;5068036;28;20020;-79
2021/07/14 08:08:03;;;;;;;22.20;9.05;;;819.80;1177.60;;;;;;5049773;28;20040;-76
2021/07/14 08:10:29;;;;;;;17.52;8.75;;;819.90;1177.60;;;;;;5067611;28;20035;-77
2021/07/14 08:12:55;;;;;;;14.25;8.40;;;819.80;1177.60;;;;;;5067432;28;20024;-75
2021/07/14 08:15:20;;;;;;;17.77;9.20;;;820.00;1152.00;;;;;;5067754;28;20017;-77
2021/07/14 08:17:47;;;;;;;14.52;8.40;;;820.00;1152.00;;;;;;5078781;28;20040;-79
2021/07/14 08:20:14;;;;;;;17.55;9.23;;;820.10;1152.00;;;;;;5036077;28;20028;-79
2021/07/14 08:22:40;;;;;;;17.10;8.45;;;820.10;1126.40;;;;;;5054317;28;20025;-78
2021/07/14 08:25:07;;;;;;;16.30;8.38;;;820.10;1152.00;;;;;;5053900;28;20017;-80
2021/07/14 08:27:34;;;;;;;12.07;8.05;;;845.00;1152.00;;;;;;5035729;28;20041;-78
2021/07/14 09:06:16;;;;;;;14.18;8.88;;;844.90;1152.00;;;;;;5079177;27;1414385;-82
2021/07/14 09:08:42;;;;;;;14.48;9.15;;;845.70;1100.80;;;;;;5113514;28;20031;-82
2021/07/14 09:11:08;;;;;;;18.13;8.68;;;845.70;1100.80;;;;;;5106584;28;20376;-81
2021/07/14 09:13:36;;;;;;;15.73;8.68;;;870.50;1100.80;;;;;;5108651;28;20511;-78
2021/07/14 09:16:02;;;;;;;14.60;8.95;;;870.70;1075.20;;;;;;5090340;28;20053;-81
2021/07/14 09:18:29;;;;;;;11.52;8.07;;;870.90;1075.20;;;;;;5087386;28;20016;-78
2021/07/14 09:20:55;;;;;;;14.20;8.05;;;870.50;1075.20;;;;;;5108965;28;20466;-80
2021/07/14 09:23:33;;;;;;;24.88;8.82;;;870.60;1100.80;;;;;;5089861;28;20031;-80
2021/07/14 09:26:02;;;;;;;11.27;8.27;;;870.70;1075.20;;;;;;5088679;28;20020;-80
2021/07/14 09:28:32;;;;;;;14.70;8.27;;;870.90;1075.20;;;;;;5090025;28;20035;-78
2021/07/14 09:31:01;;;;;;;22.20;9.00;;;871.10;1075.20;;;;;;5108875;28;20073;-78
2021/07/14 09:33:28;;;;;;;11.93;9.00;;;871.10;1049.60;;;;;;5104320;27;20027;-78
2021/07/14 09:35:55;;;;;;;15.32;9.00;;;871.30;1049.60;;;;;;5129562;28;20035;-79
2021/07/14 09:38:23;;;;;;;13.07;8.75;;;871.30;1024.00;;;;;;5112805;28;20016;-78
2021/07/14 09:41:04;;;;;;;16.05;8.43;;;871.20;1049.60;;;;;;5108885;28;20027;-77
2021/07/14 09:43:33;;;;;;;11.07;8.15;;;871.10;1049.60;;;;;;5108557;28;20469;-78
2021/07/14 09:46:07;;;;;;;14.32;8.13;;;871.00;1075.20;;;;;;5090575;28;20058;-81
2021/07/14 09:48:35;;;;;;;11.73;8.65;;;871.10;1049.60;;;;;;5108752;28;20026;-79
2021/07/14 09:51:09;;;;;;;15.70;8.00;;;871.00;1049.60;;;;;;5090173;28;20101;-78
2021/07/14 09:53:35;;;;;;;19.25;9.07;;;871.20;1049.60;;;;;;5108518;28;20062;-79
2021/07/14 09:56:14;;;;;;;17.25;8.50;;;871.10;1049.60;;;;;;5108464;28;20477;-79
2021/07/14 09:58:41;;;;;;;13.40;9.60;;;871.10;1049.60;;;;;;5108084;28;20020;-78
2021/07/14 10:01:11;;;;;;;17.50;8.35;;;871.10;1049.60;;;;;;5083642;28;20023;-79
2021/07/14 10:03:46;;;;;;;14.02;8.40;;;871.20;1024.00;;;;;;5108207;28;20032;-79
2021/07/14 10:06:14;;;;;;;13.55;7.60;;;871.30;1024.00;;;;;;5100785;28;20048;-78
2021/07/14 10:08:45;;;;;;;22.08;8.27;;;871.30;998.40;;;;;;5094781;28;20035;-78
2021/07/14 10:11:17;;;;;;;12.93;8.20;;;896.40;998.40;;;;;;5094712;28;20095;-78
2021/07/14 10:14:07;;;;;;;10.52;8.45;;;896.80;972.80;;;;;;5094652;28;20146;-79
2021/07/14 10:16:38;;;;;;;14.93;8.27;;;896.80;972.80;;;;;;5063958;28;20141;-79
2021/07/14 10:19:12;;;;;;;14.57;8.50;;;921.60;998.40;;;;;;5094772;28;20102;-79
2021/07/14 10:21:39;;;;;;;13.30;8.88;;;921.60;972.80;;;;;;5094815;28;20473;-79
2021/07/14 10:24:07;;;;;;;14.73;8.25;;;921.90;972.80;;;;;;5094515;28;20032;-79
2021/07/14 10:26:34;;;;;;;12.00;7.43;;;921.80;947.20;;;;;;5094259;28;20150;-79
2021/07/14 10:29:00;;;;;;;15.98;8.10;;;922.00;947.20;;;;;;5075726;28;20020;-81
2021/07/14 10:31:26;;;;;;;16.80;8.77;;;921.90;947.20;;;;;;5091375;28;20027;-78
2021/07/14 10:33:54;;;;;;;16.27;7.85;;;922.00;947.20;;;;;;5093685;28;20028;-77
2021/07/14 10:36:29;;;;;;;12.20;8.35;;;922.00;972.80;;;;;;5094437;28;20121;-79
2021/07/14 10:38:58;;;;;;;;;;;922.50;947.20;;;;;;5094730;28;20544;-80
2021/07/14 10:41:30;;;;;;;15.13;8.32;;;922.50;921.60;;;;;;5094186;28;19915;-78
2021/07/14 10:43:56;;;;;;;11.63;8.15;;;922.50;947.20;;;;;;5093833;28;20024;-77
2021/07/14 10:46:25;;;;;;;9.98;7.05;;;922.50;947.20;;;;;;5094099;28;20485;-79
2021/07/14 10:48:52;;;;;;;14.18;7.82;;;947.40;896.00;;;;;;5094000;28;20020;-77
2021/07/14 10:51:19;;;;;;;11.52;7.97;;;947.80;921.60;;;;;;5094202;28;20489;-87
2021/07/14 10:53:48;;;;;;;11.50;8.23;;;948.10;870.40;;;;;;5093841;28;20054;-79
2021/07/14 10:56:15;;;;;;;12.05;8.15;;;973.20;896.00;;;;;;5094004;28;20020;-78
2021/07/14 10:58:45;;;;;;;10.23;7.50;;;973.30;921.60;;;;;;5093674;28;20039;-80
2021/07/14 11:01:10;;;;;;;9.98;6.90;;;973.10;921.60;;;;;;5075703;28;20123;-79
2021/07/14 11:03:38;;;;;;;12.18;7.72;;;973.10;921.60;;;;;;5075523;28;20111;-79
2021/07/14 11:06:05;;;;;;;14.05;7.00;;;973.60;896.00;;;;;;5093413;28;20040;-79
2021/07/14 11:08:48;;;;;;;7.90;6.88;;;973.70;819.20;;;;;;5071710;28;20022;-81
2021/07/14 11:11:19;;;;;;;13.65;7.53;;;998.50;844.80;;;;;;5072244;28;20495;-79
2021/07/14 11:13:48;;;;;;;12.50;8.10;;;998.80;896.00;;;;;;5093225;28;20487;-78
2021/07/14 11:16:35;;;;;;;11.35;7.28;;;1024.00;768.00;;;;;;5092612;28;20071;-79
2021/07/14 11:19:00;;;;;;;13.27;7.63;;;1024.00;793.60;;;;;;5074203;28;20464;-79
2021/07/14 11:21:57;;;;;;;9.05;7.80;;;1024.20;793.60;;;;;;5074913;28;20030;-88
2021/07/14 11:24:42;;;;;;;15.18;8.70;;;998.70;844.80;;;;;;5074886;28;20027;-88
2021/07/14 11:27:25;;;;;;;9.98;7.88;;;998.70;870.40;;;;;;5093085;28;20389;-79
2021/07/14 11:29:56;;;;;;;8.73;6.88;;;998.50;844.80;;;;;;5075147;28;20024;-79
2021/07/14 11:32:37;;;;;;;13.57;7.20;;;973.70;793.60;;;;;;5093024;28;20078;-78
2021/07/14 11:35:24;;;;;;;9.23;7.55;;;973.50;844.80;;;;;;5093217;28;20081;-80
2021/07/14 11:37:50;;;;;;;12.50;7.63;;;998.50;870.40;;;;;;5075196;28;20390;-79
2021/07/14 11:40:19;;;;;;;12.45;6.75;;;998.90;844.80;;;;;;5074919;28;20031;-78
2021/07/14 11:42:52;;;;;;;8.73;7.15;;;998.50;844.80;;;;;;5092585;28;20020;-83
2021/07/14 11:45:36;;;;;;;11.13;7.57;;;998.80;844.80;;;;;;5089975;28;20028;-79
2021/07/14 11:48:20;;;;;;;14.45;6.53;;;999.00;844.80;;;;;;5089822;28;20099;-88
2021/07/14 11:50:46;;;;;;;14.87;7.77;;;998.70;844.80;;;;;;5090439;28;20020;-78
2021/07/14 11:53:36;;;;;;;14.02;7.65;;;998.90;819.20;;;;;;5092941;28;20032;-83
2021/07/14 11:56:10;;;;;;;17.10;8.35;;;1024.00;844.80;;;;;;5074300;28;20032;-89
2021/07/14 11:58:45;;;;;;;14.48;7.60;;;999.20;819.20;;;;;;5064455;28;20115;-78
2021/07/14 12:01:17;;;;;;;12.35;7.82;;;1024.10;819.20;;;;;;5086943;28;20024;-84
2021/07/14 12:04:04;;;;;;;7.95;7.25;;;999.10;844.80;;;;;;5073821;28;20484;-77
2021/07/14 12:06:38;;;;;;;13.10;8.15;;;1024.00;870.40;;;;;;5091832;28;20052;-79
2021/07/14 12:09:13;;;;;;;10.40;7.70;;;999.20;844.80;;;;;;5092646;28;20074;-79
2021/07/14 12:11:49;;;;;;;11.68;7.15;;;999.20;870.40;;;;;;5092805;28;20020;-79
2021/07/14 12:14:26;;;;;;;10.68;7.22;;;999.10;819.20;;;;;;5073609;28;20024;-79
2021/07/14 12:17:13;;;;;;;13.63;8.15;;;998.70;844.80;;;;;;5088969;28;20035;-79
2021/07/14 12:19:45;;;;;;;11.57;7.78;;;998.40;844.80;;;;;;4998427;28;20022;-80
2021/07/14 12:22:15;;;;;;;8.57;7.68;;;998.70;870.40;;;;;;5000890;28;20069;-86
2021/07/14 12:24:47;;;;;;;14.35;8.93;;;998.50;896.00;;;;;;4995650;28;20397;-82
2021/07/14 12:27:16;;;;;;;16.65;7.20;;;998.70;870.40;;;;;;4982484;28;20029;-78
2021/07/14 12:29:48;;;;;;;8.48;7.28;;;998.70;870.40;;;;;;4974236;28;20392;-78
2021/07/14 12:32:15;;;;;;;11.68;8.60;;;998.50;870.40;;;;;;4990607;28;20038;-79
2021/07/14 12:34:45;;;;;;;16.67;8.57;;;998.80;870.40;;;;;;4990107;28;20035;-80
2021/07/14 12:37:11;;;;;;;15.93;7.97;;;998.50;870.40;;;;;;4990825;28;20101;-91
2021/07/14 12:39:38;;;;;;;12.88;8.88;;;998.40;896.00;;;;;;4990537;28;20030;-85
2021/07/14 12:42:07;;;;;;;13.63;9.48;;;973.60;896.00;;;;;;4990679;28;20026;-80
2021/07/14 12:44:35;;;;;;;16.48;9.63;;;973.40;896.00;;;;;;4974115;28;20026;-78
2021/07/14 12:47:20;;;;;;;15.77;8.73;;;973.70;896.00;;;;;;4971804;28;20027;-82
2021/07/14 12:49:48;;;;;;;10.27;9.13;;;973.70;870.40;;;;;;4971850;28;20411;-81
2021/07/14 12:52:22;;;;;;;13.63;8.13;;;973.50;896.00;;;;;;4990496;28;20065;-91
2021/07/14 12:54:54;;;;;;;10.17;8.53;;;973.60;896.00;;;;;;4979406;28;20633;-78
2021/07/14 12:57:20;;;;;;;11.25;8.70;;;973.70;896.00;;;;;;5035322;28;20036;-79
2021/07/14 13:00:02;;;;;;;15.18;9.13;;;998.70;896.00;;;;;;5072068;28;20040;-88
2021/07/14 13:02:38;;;;;;;21.52;9.68;;;998.40;921.60;;;;;;5072188;28;20378;-84
2021/07/14 13:05:05;;;;;;;12.23;8.20;;;998.80;921.60;;;;;;5089017;28;20073;-82
2021/07/14 13:07:33;;;;;;;39.38;10.52;;;973.60;896.00;;;;;;5080755;28;20095;-79
2021/07/14 13:10:00;;;;;;;15.43;9.23;;;973.70;921.60;;;;;;5073631;28;20067;-79
2021/07/14 13:12:29;;;;;;;21.98;9.73;;;973.20;921.60;;;;;;5071974;28;20028;-78
2021/07/14 13:14:55;;;;;;;24.42;10.02;;;973.00;896.00;;;;;;5056704;28;20125;-79
2021/07/14 13:17:39;;;;;;;12.00;9.82;;;973.10;896.00;;;;;;5073694;28;20028;-78
2021/07/14 13:20:12;;;;;;;17.83;9.57;;;973.00;896.00;;;;;;5091546;28;20028;-79
2021/07/14 13:22:40;;;;;;;22.65;9.55;;;973.00;896.00;;;;;;5070795;28;20046;-79
2021/07/14 13:25:17;;;;;;;20.50;9.88;;;972.80;896.00;;;;;;5090597;28;20440;-79
2021/07/14 13:27:46;;;;;;;16.20;9.10;;;972.90;896.00;;;;;;5073045;28;20170;-89
2021/07/14 13:30:30;;;;;;;19.50;8.98;;;972.80;896.00;;;;;;5090959;28;20031;-80
2021/07/14 13:33:19;;;;;;;16.23;9.32;;;972.90;896.00;;;;;;5091329;28;20032;-80
2021/07/14 13:35:48;;;;;;;22.30;9.85;;;948.10;870.40;;;;;;5011897;28;20103;-79
2021/07/14 13:38:42;;;;;;;13.65;9.90;;;972.90;896.00;;;;;;5012725;28;20128;-92
2021/07/14 13:41:15;;;;;;;19.48;10.07;;;972.90;896.00;;;;;;5028457;28;20069;-78
2021/07/14 13:44:04;;;;;;;21.52;9.60;;;972.90;921.60;;;;;;5032412;28;20030;-91
2021/07/14 13:46:34;;;;;;;12.55;9.77;;;972.90;921.60;;;;;;5014586;28;20052;-79